sensor_id;sensor_type;location;lat;lon;timestamp;pressure;altitude;pressure_sealevel;temperature;humidity
47166;BME280;32930;51.112;13.762;2023-05-21T15:23:29;99380.09;;;23.17;60.71
47166;BME280;32930;51.112;13.762;2023-05-21T15:25:54;99374.97;;;23.33;60.35
47166;BME280;32930;51.112;13.762;2023-05-21T15:46:52;99360.50;;;23.94;53.40
47166;BME280;32930;51.112;13.762;2023-05-21T15:49:19;99357.38;;;23.87;53.81
47166;BME280;32930;51.112;13.762;2023-05-21T15:51:47;99359.56;;;23.95;54.00
47166;BME280;32930;51.112;13.762;2023-05-21T15:54:12;99352.75;;;23.75;52.75
47166;BME280;32930;51.112;13.762;2023-05-21T15:56:40;99358.44;;;23.83;53.60
47166;BME280;32930;51.112;13.762;2023-05-21T15:59:05;99351.13;;;23.90;53.31
47166;BME280;32930;51.112;13.762;2023-05-21T16:01:31;99348.41;;;23.91;52.52
47166;BME280;32930;51.112;13.762;2023-05-21T16:03:56;99347.97;;;23.99;52.66
47166;BME280;32930;51.112;13.762;2023-05-21T16:06:23;99346.97;;;24.01;52.50
47166;BME280;32930;51.112;13.762;2023-05-21T16:08:48;99344.53;;;23.98;52.17
47166;BME280;32930;51.112;13.762;2023-05-21T16:11:14;99346.94;;;23.86;51.43
47166;BME280;32930;51.112;13.762;2023-05-21T16:13:40;99343.78;;;23.96;51.87
47166;BME280;32930;51.112;13.762;2023-05-21T16:16:06;99342.00;;;23.97;51.51
47166;BME280;32930;51.112;13.762;2023-05-21T16:18:32;99354.66;;;23.89;51.51
47166;BME280;32930;51.112;13.762;2023-05-21T16:21:08;99340.53;;;23.91;51.78
47166;BME280;32930;51.112;13.762;2023-05-21T16:26:09;99338.38;;;23.99;51.81
47166;BME280;32930;51.112;13.762;2023-05-21T16:28:43;99336.97;;;23.92;51.84
47166;BME280;32930;51.112;13.762;2023-05-21T16:31:12;99333.00;;;23.85;51.62
47166;BME280;32930;51.112;13.762;2023-05-21T16:33:46;99334.97;;;23.97;51.77
47166;BME280;32930;51.112;13.762;2023-05-21T16:38:44;99343.75;;;23.80;50.98
47166;BME280;32930;51.112;13.762;2023-05-21T16:41:13;99344.34;;;24.01;51.97
47166;BME280;32930;51.112;13.762;2023-05-21T16:43:44;99341.22;;;23.95;51.49
47166;BME280;32930;51.112;13.762;2023-05-21T16:54:01;99347.38;;;23.78;51.60
47166;BME280;32930;51.112;13.762;2023-05-21T16:56:29;99336.94;;;23.76;51.34
47166;BME280;32930;51.112;13.762;2023-05-21T16:58:55;99342.66;;;23.85;51.10
47166;BME280;32930;51.112;13.762;2023-05-21T17:01:21;99346.44;;;23.79;51.21
47166;BME280;32930;51.112;13.762;2023-05-21T17:03:47;99338.81;;;23.74;51.65
47166;BME280;32930;51.112;13.762;2023-05-21T17:06:15;99340.09;;;23.66;51.43
47166;BME280;32930;51.112;13.762;2023-05-21T17:08:41;99334.19;;;23.62;51.52
47166;BME280;32930;51.112;13.762;2023-05-21T17:11:25;99335.34;;;23.56;51.74
47166;BME280;32930;51.112;13.762;2023-05-21T17:13:53;99337.56;;;23.64;52.05
47166;BME280;32930;51.112;13.762;2023-05-21T17:16:19;99340.50;;;23.58;51.77
47166;BME280;32930;51.112;13.762;2023-05-21T17:18:44;99338.44;;;23.65;51.57
47166;BME280;32930;51.112;13.762;2023-05-21T17:21:10;99343.09;;;23.58;51.94
47166;BME280;32930;51.112;13.762;2023-05-21T17:26:11;99336.34;;;23.54;51.84
47166;BME280;32930;51.112;13.762;2023-05-21T17:28:38;99342.34;;;23.39;51.97
47166;BME280;32930;51.112;13.762;2023-05-21T17:31:03;99342.22;;;23.42;52.04
47166;BME280;32930;51.112;13.762;2023-05-21T17:33:29;99346.75;;;23.55;52.39
47166;BME280;32930;51.112;13.762;2023-05-21T17:35:55;99348.69;;;23.52;52.63
47166;BME280;32930;51.112;13.762;2023-05-21T17:38:21;99348.69;;;23.34;53.09
47166;BME280;32930;51.112;13.762;2023-05-21T17:43:20;99346.06;;;23.34;53.50
47166;BME280;32930;51.112;13.762;2023-05-21T17:45:45;99341.13;;;23.28;53.40
47166;BME280;32930;51.112;13.762;2023-05-21T17:48:11;99346.38;;;23.28;53.38
47166;BME280;32930;51.112;13.762;2023-05-21T17:50:37;99352.59;;;23.26;53.78
47166;BME280;32930;51.112;13.762;2023-05-21T17:53:02;99338.53;;;23.11;53.97
47166;BME280;32930;51.112;13.762;2023-05-21T17:55:31;99349.00;;;23.11;54.07
47166;BME280;32930;51.112;13.762;2023-05-21T17:57:59;99351.38;;;23.16;54.44
47166;BME280;32930;51.112;13.762;2023-05-21T18:00:25;99357.44;;;23.16;53.96
47166;BME280;32930;51.112;13.762;2023-05-21T18:02:50;99350.00;;;23.08;54.19
47166;BME280;32930;51.112;13.762;2023-05-21T18:05:16;99359.78;;;23.05;54.70
47166;BME280;32930;51.112;13.762;2023-05-21T18:07:41;99361.50;;;23.04;54.59
47166;BME280;32930;51.112;13.762;2023-05-21T18:10:07;99366.47;;;22.91;54.86
47166;BME280;32930;51.112;13.762;2023-05-21T18:12:33;99354.84;;;22.99;55.19
47166;BME280;32930;51.112;13.762;2023-05-21T18:14:58;99361.53;;;22.85;55.35
47166;BME280;32930;51.112;13.762;2023-05-21T18:17:29;99356.16;;;22.88;55.77
47166;BME280;32930;51.112;13.762;2023-05-21T18:19:55;99358.31;;;22.80;55.64
47166;BME280;32930;51.112;13.762;2023-05-21T18:22:20;99365.91;;;22.85;55.78
47166;BME280;32930;51.112;13.762;2023-05-21T18:24:46;99361.31;;;22.90;55.86
47166;BME280;32930;51.112;13.762;2023-05-21T18:27:11;99363.84;;;22.91;55.89
47166;BME280;32930;51.112;13.762;2023-05-21T18:29:40;99363.53;;;22.80;55.86
47166;BME280;32930;51.112;13.762;2023-05-21T18:35:18;99377.34;;;22.65;55.84
47166;BME280;32930;51.112;13.762;2023-05-21T18:43:38;99369.09;;;22.55;56.54
47166;BME280;32930;51.112;13.762;2023-05-21T18:46:03;99367.19;;;22.40;56.59
47166;BME280;32930;51.112;13.762;2023-05-21T18:48:29;99365.00;;;22.31;57.36
47166;BME280;32930;51.112;13.762;2023-05-21T18:51:04;99369.78;;;22.40;57.04
47166;BME280;32930;51.112;13.762;2023-05-21T18:53:29;99371.28;;;22.46;56.78
47166;BME280;32930;51.112;13.762;2023-05-21T18:55:55;99375.81;;;22.23;57.65
47166;BME280;32930;51.112;13.762;2023-05-21T18:58:42;99374.47;;;22.33;57.56
47166;BME280;32930;51.112;13.762;2023-05-21T19:01:23;99378.75;;;22.34;57.64
47166;BME280;32930;51.112;13.762;2023-05-21T19:13:15;99383.22;;;22.32;58.06
47166;BME280;32930;51.112;13.762;2023-05-21T19:15:41;99375.16;;;22.18;58.48
47166;BME280;32930;51.112;13.762;2023-05-21T19:18:11;99373.31;;;22.20;57.98
47166;BME280;32930;51.112;13.762;2023-05-21T19:20:42;99376.03;;;21.98;58.64
47166;BME280;32930;51.112;13.762;2023-05-21T19:23:08;99385.50;;;22.01;58.76
47166;BME280;32930;51.112;13.762;2023-05-21T19:28:01;99381.53;;;22.11;58.82
47166;BME280;32930;51.112;13.762;2023-05-21T19:30:27;99389.00;;;21.99;59.20
47166;BME280;32930;51.112;13.762;2023-05-21T19:32:53;99380.88;;;22.06;59.15
47166;BME280;32930;51.112;13.762;2023-05-21T19:35:19;99385.41;;;22.02;59.58
47166;BME280;32930;51.112;13.762;2023-05-21T19:37:46;99382.63;;;21.86;60.05
47166;BME280;32930;51.112;13.762;2023-05-21T19:40:12;99387.31;;;21.98;59.60
47166;BME280;32930;51.112;13.762;2023-05-21T19:42:48;99393.38;;;21.99;59.73
47166;BME280;32930;51.112;13.762;2023-05-21T19:45:13;99390.38;;;21.88;60.11
47166;BME280;32930;51.112;13.762;2023-05-21T19:47:40;99385.91;;;21.91;59.75
47166;BME280;32930;51.112;13.762;2023-05-21T19:50:06;99398.13;;;21.70;60.50
47166;BME280;32930;51.112;13.762;2023-05-21T19:55:07;99384.31;;;21.87;59.90
47166;BME280;32930;51.112;13.762;2023-05-21T19:57:34;99394.19;;;21.60;60.22
47166;BME280;32930;51.112;13.762;2023-05-21T20:00:00;99397.41;;;21.67;60.48
47166;BME280;32930;51.112;13.762;2023-05-21T20:02:25;99394.25;;;21.59;60.76
47166;BME280;32930;51.112;13.762;2023-05-21T20:04:53;99393.81;;;21.69;60.33
47166;BME280;32930;51.112;13.762;2023-05-21T20:07:21;99399.53;;;21.78;59.89
47166;BME280;32930;51.112;13.762;2023-05-21T20:12:19;99393.41;;;21.58;60.00
47166;BME280;32930;51.112;13.762;2023-05-21T20:14:45;99385.53;;;21.60;60.05
47166;BME280;32930;51.112;13.762;2023-05-21T20:17:12;99390.41;;;21.47;60.38
47166;BME280;32930;51.112;13.762;2023-05-21T20:19:38;99385.84;;;21.52;60.03
47166;BME280;32930;51.112;13.762;2023-05-21T20:22:04;99379.38;;;21.40;60.55
47166;BME280;32930;51.112;13.762;2023-05-21T20:24:29;99380.16;;;21.42;60.07
47166;BME280;32930;51.112;13.762;2023-05-21T20:26:55;99381.72;;;21.46;59.99
47166;BME280;32930;51.112;13.762;2023-05-21T20:29:21;99387.31;;;21.37;60.74
47166;BME280;32930;51.112;13.762;2023-05-21T20:31:46;99382.97;;;21.38;60.50
47166;BME280;32930;51.112;13.762;2023-05-21T20:34:12;99385.00;;;21.51;60.00
47166;BME280;32930;51.112;13.762;2023-05-21T20:36:38;99385.69;;;21.35;60.57
47166;BME280;32930;51.112;13.762;2023-05-21T20:39:11;99382.91;;;21.39;60.01
47166;BME280;32930;51.112;13.762;2023-05-21T20:41:37;99386.56;;;21.35;60.69
47166;BME280;32930;51.112;13.762;2023-05-21T20:44:03;99390.94;;;21.33;61.03
47166;BME280;32930;51.112;13.762;2023-05-21T20:46:32;99387.88;;;21.23;60.76
47166;BME280;32930;51.112;13.762;2023-05-21T20:48:59;99397.25;;;21.27;60.59
47166;BME280;32930;51.112;13.762;2023-05-21T20:51:25;99389.44;;;21.27;60.48
47166;BME280;32930;51.112;13.762;2023-05-21T20:53:51;99385.72;;;21.33;60.29
47166;BME280;32930;51.112;13.762;2023-05-21T20:56:17;99389.88;;;21.17;60.55
47166;BME280;32930;51.112;13.762;2023-05-21T20:58:45;99390.81;;;21.16;60.39
47166;BME280;32930;51.112;13.762;2023-05-21T21:01:11;99399.88;;;21.05;60.80
47166;BME280;32930;51.112;13.762;2023-05-21T21:03:39;99383.75;;;21.18;60.13
47166;BME280;32930;51.112;13.762;2023-05-21T21:08:40;99382.72;;;21.22;59.96
47166;BME280;32930;51.112;13.762;2023-05-21T21:11:09;99388.84;;;20.99;60.20
47166;BME280;32930;51.112;13.762;2023-05-21T21:13:43;99388.56;;;21.06;59.60
47166;BME280;32930;51.112;13.762;2023-05-21T21:16:08;99388.50;;;21.08;60.46
47166;BME280;32930;51.112;13.762;2023-05-21T21:18:34;99383.28;;;21.08;60.05
47166;BME280;32930;51.112;13.762;2023-05-21T21:20:59;99389.47;;;21.05;59.88
47166;BME280;32930;51.112;13.762;2023-05-21T21:28:35;99390.69;;;20.97;60.06
47166;BME280;32930;51.112;13.762;2023-05-21T21:31:01;99396.56;;;21.02;59.86
47166;BME280;32930;51.112;13.762;2023-05-21T21:33:45;99400.88;;;21.03;59.53
47166;BME280;32930;51.112;13.762;2023-05-21T21:36:11;99403.25;;;21.09;59.54
47166;BME280;32930;51.112;13.762;2023-05-21T21:38:37;99403.03;;;20.93;60.01
47166;BME280;32930;51.112;13.762;2023-05-21T21:43:38;99397.59;;;20.76;61.10
47166;BME280;32930;51.112;13.762;2023-05-21T21:46:03;99402.06;;;20.49;62.50
47166;BME280;32930;51.112;13.762;2023-05-21T21:48:29;99398.13;;;20.38;63.59
47166;BME280;32930;51.112;13.762;2023-05-21T21:50:54;99401.97;;;20.28;64.01
47166;BME280;32930;51.112;13.762;2023-05-21T21:53:21;99400.88;;;20.10;65.13
47166;BME280;32930;51.112;13.762;2023-05-21T21:55:46;99400.56;;;20.20;64.47
47166;BME280;32930;51.112;13.762;2023-05-21T21:58:12;99391.16;;;20.16;64.97
47166;BME280;32930;51.112;13.762;2023-05-21T22:00:37;99400.78;;;20.13;64.68
47166;BME280;32930;51.112;13.762;2023-05-21T22:03:03;99395.69;;;20.10;65.70
47166;BME280;32930;51.112;13.762;2023-05-21T22:05:28;99396.00;;;20.01;65.87
47166;BME280;32930;51.112;13.762;2023-05-21T22:07:55;99402.31;;;19.96;65.88
47166;BME280;32930;51.112;13.762;2023-05-21T22:12:56;99398.94;;;19.92;66.00
47166;BME280;32930;51.112;13.762;2023-05-21T22:15:22;99398.19;;;19.88;65.78
47166;BME280;32930;51.112;13.762;2023-05-21T22:17:53;99399.03;;;19.89;65.83
47166;BME280;32930;51.112;13.762;2023-05-21T22:20:18;99401.75;;;19.86;66.13
47166;BME280;32930;51.112;13.762;2023-05-21T22:22:45;99399.25;;;19.83;66.17
47166;BME280;32930;51.112;13.762;2023-05-21T22:25:11;99399.41;;;19.80;66.33
47166;BME280;32930;51.112;13.762;2023-05-21T22:27:36;99405.75;;;19.71;67.20
47166;BME280;32930;51.112;13.762;2023-05-21T22:30:03;99398.09;;;19.66;67.66
47166;BME280;32930;51.112;13.762;2023-05-21T22:32:29;99399.19;;;19.59;67.91
47166;BME280;32930;51.112;13.762;2023-05-21T22:34:54;99393.94;;;19.61;67.14
47166;BME280;32930;51.112;13.762;2023-05-21T22:37:21;99393.38;;;19.51;67.38
47166;BME280;32930;51.112;13.762;2023-05-21T22:39:48;99382.44;;;19.41;67.91
47166;BME280;32930;51.112;13.762;2023-05-21T22:42:13;99387.53;;;19.44;68.02
47166;BME280;32930;51.112;13.762;2023-05-21T22:44:39;99388.03;;;19.56;66.99
47166;BME280;32930;51.112;13.762;2023-05-21T22:47:05;99384.19;;;19.67;66.37
47166;BME280;32930;51.112;13.762;2023-05-21T22:49:30;99387.84;;;19.87;65.27
47166;BME280;32930;51.112;13.762;2023-05-21T22:51:59;99384.41;;;19.86;64.99
47166;BME280;32930;51.112;13.762;2023-05-21T23:33:19;99388.97;;;19.02;69.89
47166;BME280;32930;51.112;13.762;2023-05-21T23:35:45;99390.81;;;18.98;69.85
